createdAt,value
2022-11-08T00:00:59.789Z,3.32
2022-11-08T00:03:26.383Z,3.46
2022-11-08T00:05:55.059Z,3.47
2022-11-08T00:08:21.794Z,3.28
2022-11-08T00:10:48.423Z,3.42
2022-11-08T00:13:14.939Z,3.30
2022-11-08T00:15:41.505Z,3.44
2022-11-08T00:18:08.416Z,3.55
2022-11-08T00:20:35.016Z,3.52
2022-11-08T00:23:01.800Z,3.24
2022-11-08T00:25:28.492Z,3.18
2022-11-08T00:27:55.110Z,3.46
2022-11-08T00:30:21.619Z,3.26
2022-11-08T00:32:48.219Z,3.28
2022-11-08T00:35:14.836Z,3.32
2022-11-08T00:37:41.326Z,3.36
2022-11-08T00:40:08.275Z,3.44
2022-11-08T00:42:34.775Z,3.29
2022-11-08T00:45:01.433Z,3.27
2022-11-08T00:47:28.275Z,3.36
2022-11-08T00:49:54.963Z,3.33
2022-11-08T00:52:21.499Z,3.29
2022-11-08T00:54:48.031Z,3.38
2022-11-08T00:57:14.501Z,3.15
2022-11-08T00:59:41.001Z,3.24
2022-11-08T01:02:07.689Z,3.29
2022-11-08T01:04:34.346Z,3.49
2022-11-08T01:07:00.975Z,3.33
2022-11-08T01:09:27.609Z,3.42
2022-11-08T01:11:54.164Z,3.54
2022-11-08T01:14:20.726Z,3.49
2022-11-08T01:16:47.295Z,3.60
2022-11-08T01:19:13.772Z,3.68
2022-11-08T01:21:40.230Z,3.71
2022-11-08T01:24:07.004Z,3.59
2022-11-08T01:26:33.910Z,3.83
2022-11-08T01:29:00.443Z,3.86
2022-11-08T01:31:29.801Z,3.86
2022-11-08T01:33:57.112Z,3.69
2022-11-08T01:36:26.166Z,3.74
2022-11-08T01:38:53.622Z,3.77
2022-11-08T01:41:22.015Z,3.80
2022-11-08T01:43:50.349Z,3.81
2022-11-08T01:46:19.961Z,3.89
2022-11-08T01:48:53.862Z,3.94
2022-11-08T01:51:25.478Z,4.00
2022-11-08T01:53:52.350Z,3.89
2022-11-08T01:56:20.751Z,3.96
2022-11-08T01:58:51.889Z,3.90
2022-11-08T02:01:18.437Z,3.96
2022-11-08T02:03:45.302Z,3.81
2022-11-08T02:06:12.539Z,3.88
2022-11-08T02:08:44.174Z,3.80
2022-11-08T02:11:14.262Z,3.81
2022-11-08T02:13:41.324Z,3.68
2022-11-08T02:16:13.158Z,3.89
2022-11-08T02:18:41.850Z,3.97
2022-11-08T02:21:20.773Z,3.92
2022-11-08T02:23:47.306Z,4.21
2022-11-08T02:26:15.983Z,4.04
2022-11-08T02:28:44.959Z,4.06
2022-11-08T02:31:12.968Z,4.09
2022-11-08T02:33:40.330Z,4.03
2022-11-08T02:36:08.266Z,4.00
2022-11-08T02:38:40.476Z,3.99
2022-11-08T02:41:07.264Z,3.90
2022-11-08T02:43:33.798Z,3.95
2022-11-08T02:46:00.448Z,4.04
2022-11-08T02:48:27.478Z,3.96
2022-11-08T02:50:54.249Z,4.04
2022-11-08T02:53:21.205Z,4.10
2022-11-08T02:55:48.105Z,4.01
2022-11-08T02:58:15.100Z,4.13
2022-11-08T03:00:41.932Z,4.12
2022-11-08T03:03:08.694Z,4.13
2022-11-08T03:05:35.540Z,4.16
2022-11-08T03:08:02.347Z,4.04
2022-11-08T03:10:29.267Z,4.16
2022-11-08T03:12:57.532Z,4.13
2022-11-08T03:15:24.123Z,4.14
2022-11-08T03:17:50.780Z,4.22
2022-11-08T03:20:17.791Z,4.28
2022-11-08T03:22:45.717Z,4.29
2022-11-08T03:25:13.364Z,4.22
2022-11-08T03:27:39.985Z,4.34
2022-11-08T03:30:07.542Z,4.30
2022-11-08T03:32:34.171Z,4.32
2022-11-08T03:35:00.677Z,4.35
2022-11-08T03:37:27.202Z,4.19
2022-11-08T03:39:53.786Z,4.17
2022-11-08T03:42:20.291Z,4.17
2022-11-08T03:44:46.801Z,4.20
2022-11-08T03:47:13.591Z,4.07
2022-11-08T03:49:40.117Z,4.02
2022-11-08T03:52:06.715Z,3.87
2022-11-08T03:54:33.320Z,3.92
2022-11-08T03:56:59.804Z,3.95
2022-11-08T03:59:26.302Z,3.91
2022-11-08T04:01:53.037Z,4.09
2022-11-08T04:04:19.795Z,3.98
2022-11-08T04:06:46.959Z,4.01
2022-11-08T04:09:16.486Z,4.18
2022-11-08T04:11:45.652Z,4.17
2022-11-08T04:14:12.186Z,4.26
2022-11-08T04:16:38.898Z,4.41
2022-11-08T04:19:05.562Z,4.59
2022-11-08T04:21:32.243Z,4.43
2022-11-08T04:23:58.873Z,4.59
2022-11-08T04:26:25.424Z,4.68
2022-11-08T04:28:51.908Z,4.69
2022-11-08T04:31:20.039Z,4.63
2022-11-08T04:33:46.662Z,4.71
2022-11-08T04:36:16.389Z,4.53
2022-11-08T04:38:43.439Z,4.42
2022-11-08T04:41:12.587Z,4.44
2022-11-08T04:43:39.110Z,4.48
2022-11-08T04:46:11.314Z,4.53
2022-11-08T04:48:38.138Z,4.66
2022-11-08T04:51:17.692Z,4.57
2022-11-08T04:53:44.720Z,4.44
2022-11-08T04:56:14.380Z,4.52
2022-11-08T04:58:46.002Z,4.60
2022-11-08T05:01:16.317Z,4.55
2022-11-08T05:03:44.500Z,4.57
2022-11-08T05:06:13.351Z,4.62
2022-11-08T05:08:40.664Z,4.36
2022-11-08T05:11:10.653Z,4.07
2022-11-08T05:13:37.675Z,4.06
2022-11-08T05:16:06.747Z,4.17
2022-11-08T05:18:34.208Z,4.39
2022-11-08T05:21:02.050Z,4.03
2022-11-08T05:23:28.670Z,4.06
2022-11-08T05:25:57.435Z,4.05
2022-11-08T05:28:24.058Z,4.20
2022-11-08T05:30:55.497Z,4.07
2022-11-08T05:33:22.103Z,4.40
2022-11-08T05:35:48.927Z,4.53
2022-11-08T05:38:16.022Z,4.40
2022-11-08T05:40:42.833Z,4.49
2022-11-08T05:43:09.767Z,4.63
2022-11-08T05:45:36.329Z,4.34
2022-11-08T05:48:03.561Z,4.40
2022-11-08T05:50:34.775Z,4.40
2022-11-08T05:53:01.508Z,4.33
2022-11-08T05:55:28.453Z,4.27
2022-11-08T05:57:55.088Z,4.21
2022-11-08T06:00:22.179Z,4.26
2022-11-08T06:02:48.774Z,4.22
2022-11-08T06:05:18.017Z,4.36
2022-11-08T06:07:44.955Z,4.41
2022-11-08T06:10:11.494Z,4.35
2022-11-08T06:12:38.440Z,4.32
2022-11-08T06:15:07.179Z,4.21
2022-11-08T06:17:34.362Z,4.17
2022-11-08T06:20:00.939Z,4.32
2022-11-08T06:22:30.547Z,4.56
2022-11-08T06:25:00.572Z,4.60
2022-11-08T06:27:28.041Z,4.53
2022-11-08T06:29:54.520Z,4.44
2022-11-08T06:32:21.180Z,4.42
2022-11-08T06:34:47.867Z,4.51
2022-11-08T06:37:15.348Z,4.63
2022-11-08T06:39:42.526Z,4.69
2022-11-08T06:42:09.778Z,4.75
2022-11-08T06:44:36.515Z,4.61
2022-11-08T06:47:03.301Z,4.78
2022-11-08T06:49:29.971Z,4.77
2022-11-08T06:51:56.619Z,4.78
2022-11-08T06:54:25.922Z,4.86
2022-11-08T06:56:53.798Z,4.92
2022-11-08T06:59:22.896Z,5.06
2022-11-08T07:01:49.565Z,4.93
2022-11-08T07:04:16.288Z,5.01
2022-11-08T07:06:43.081Z,4.92
2022-11-08T07:09:11.788Z,4.80
2022-11-08T07:11:39.106Z,4.74
2022-11-08T07:14:05.773Z,4.89
2022-11-08T07:16:32.435Z,4.81
2022-11-08T07:18:58.992Z,4.98
2022-11-08T07:21:25.535Z,4.91
2022-11-08T07:23:52.105Z,5.11
2022-11-08T07:26:18.738Z,4.88
2022-11-08T07:28:45.333Z,4.85
2022-11-08T07:31:12.043Z,4.93
2022-11-08T07:33:38.703Z,5.20
2022-11-08T07:36:05.474Z,4.98
2022-11-08T07:38:32.107Z,5.07
2022-11-08T07:41:00.126Z,5.09
2022-11-08T07:43:27.901Z,4.85
2022-11-08T07:45:57.479Z,4.95
2022-11-08T07:48:25.157Z,4.88
2022-11-08T07:50:52.042Z,4.90
2022-11-08T07:53:18.911Z,4.97
2022-11-08T07:55:46.833Z,4.82
2022-11-08T07:58:13.713Z,4.89
2022-11-08T08:00:42.526Z,4.85
2022-11-08T08:03:12.184Z,5.04
2022-11-08T08:05:44.308Z,4.97
2022-11-08T08:08:13.668Z,4.89
2022-11-08T08:10:40.925Z,4.88
2022-11-08T08:13:09.903Z,4.90
2022-11-08T08:15:36.728Z,4.71
2022-11-08T08:18:05.043Z,4.80
2022-11-08T08:20:32.439Z,4.85
2022-11-08T08:22:59.367Z,4.80
2022-11-08T08:25:27.150Z,4.84
2022-11-08T08:27:56.500Z,4.96
2022-11-08T08:30:24.865Z,4.97
2022-11-08T08:33:21.963Z,4.96
2022-11-08T08:35:42.033Z,5.08
2022-11-08T08:38:11.736Z,5.02
2022-11-08T08:40:38.867Z,5.03
2022-11-08T08:43:07.898Z,4.89
2022-11-08T08:45:35.368Z,4.76
2022-11-08T08:48:03.001Z,4.91
2022-11-08T08:50:33.610Z,4.92
2022-11-08T08:53:05.581Z,4.83
2022-11-08T08:55:32.629Z,4.85
2022-11-08T08:57:59.282Z,4.91
2022-11-08T09:03:15.306Z,4.87
2022-11-08T09:05:42.368Z,4.77
2022-11-08T09:08:09.690Z,4.86
2022-11-08T09:10:36.616Z,5.07
2022-11-08T09:13:03.920Z,5.14
2022-11-08T09:15:30.778Z,5.20
2022-11-08T09:17:57.765Z,5.18
2022-11-08T09:20:24.912Z,5.25
2022-11-08T09:22:51.671Z,5.23
2022-11-08T09:25:18.836Z,5.17
2022-11-08T09:27:45.493Z,5.24
2022-11-08T09:30:20.675Z,5.11
2022-11-08T09:33:00.133Z,5.25
2022-11-08T09:35:27.776Z,5.35
2022-11-08T09:37:54.922Z,5.39
2022-11-08T09:40:47.917Z,5.45
2022-11-08T09:43:17.540Z,5.35
2022-11-08T09:45:48.057Z,5.51
2022-11-08T09:48:32.052Z,5.57
2022-11-08T09:51:05.990Z,5.50
2022-11-08T09:53:37.064Z,5.36
2022-11-08T09:56:16.372Z,5.26
2022-11-08T09:58:50.613Z,5.41
2022-11-08T10:01:17.816Z,5.52
2022-11-08T10:03:49.175Z,5.47
2022-11-08T10:06:43.283Z,5.46
2022-11-08T10:09:31.679Z,5.61
2022-11-08T10:12:09.290Z,5.56
2022-11-08T10:15:00.636Z,5.40
2022-11-08T10:17:39.668Z,5.40
2022-11-08T10:20:18.368Z,5.57
2022-11-08T10:23:10.184Z,5.58
2022-11-08T10:25:40.855Z,5.57
2022-11-08T10:28:08.316Z,5.62
2022-11-08T10:30:40.807Z,5.56
2022-11-08T10:33:22.443Z,5.52
2022-11-08T10:36:04.187Z,5.46
2022-11-08T10:38:54.153Z,5.55
2022-11-08T10:41:48.282Z,5.41
2022-11-08T10:44:23.551Z,5.41
2022-11-08T10:46:56.035Z,5.45
2022-11-08T10:49:31.251Z,5.42
2022-11-08T10:52:35.496Z,5.30
2022-11-08T10:55:02.451Z,5.38
2022-11-08T10:57:32.097Z,5.22
2022-11-08T11:00:24.308Z,5.21
2022-11-08T11:03:11.086Z,5.21
2022-11-08T11:05:42.400Z,5.21
2022-11-08T11:08:09.292Z,5.28
2022-11-08T11:10:39.112Z,5.24
2022-11-08T11:13:19.643Z,5.18
2022-11-08T11:15:58.668Z,5.10
2022-11-08T11:18:46.661Z,5.10
2022-11-08T11:21:20.638Z,5.06
2022-11-08T11:23:48.795Z,5.09
2022-11-08T11:26:27.449Z,4.97
2022-11-08T11:29:05.434Z,4.98
2022-11-08T11:31:35.357Z,5.06
2022-11-08T11:34:17.603Z,4.98
2022-11-08T11:37:12.470Z,4.90
2022-11-08T11:40:06.216Z,4.98
2022-11-08T11:43:01.941Z,5.06
2022-11-08T11:45:36.517Z,5.16
2022-11-08T11:48:26.623Z,5.12
2022-11-08T11:50:57.680Z,5.08
2022-11-08T11:53:33.222Z,5.13
2022-11-08T11:56:34.172Z,5.10
2022-11-08T11:59:06.771Z,5.07
2022-11-08T12:01:54.722Z,5.05
2022-11-08T12:05:08.457Z,5.07
2022-11-08T12:07:43.854Z,5.08
2022-11-08T12:10:28.446Z,5.12
2022-11-08T12:13:04.793Z,5.19
2022-11-08T12:15:37.082Z,5.13
2022-11-08T12:18:08.467Z,5.00
2022-11-08T12:21:22.031Z,5.05
2022-11-08T12:24:00.632Z,4.92
2022-11-08T12:26:44.406Z,4.96
2022-11-08T12:29:22.490Z,4.96
2022-11-08T12:32:23.206Z,4.94
2022-11-08T12:35:08.613Z,5.00
2022-11-08T12:38:03.083Z,4.98
2022-11-08T12:40:45.029Z,5.03
2022-11-08T12:43:49.607Z,5.07
2022-11-08T12:46:17.591Z,5.08
2022-11-08T12:49:22.145Z,5.05
2022-11-08T12:52:03.927Z,5.11
2022-11-08T12:55:02.864Z,5.09
2022-11-08T12:57:29.915Z,5.03
2022-11-08T13:00:14.612Z,4.99
2022-11-08T13:02:43.806Z,4.99
2022-11-08T13:05:30.365Z,4.96
2022-11-08T13:08:08.846Z,5.00
2022-11-08T13:10:59.076Z,4.93
2022-11-08T13:13:48.850Z,4.91
2022-11-08T13:16:21.255Z,4.90
2022-11-08T13:18:49.604Z,4.99
2022-11-08T13:21:28.189Z,4.88
2022-11-08T13:24:42.796Z,4.89
2022-11-08T13:27:39.520Z,4.93
2022-11-08T13:30:12.279Z,4.91
2022-11-08T13:32:55.016Z,4.95
2022-11-08T13:35:24.871Z,4.95
2022-11-08T13:38:03.906Z,4.94
2022-11-08T13:40:42.360Z,4.98
2022-11-08T13:43:28.712Z,5.02
2022-11-08T13:45:56.891Z,5.06
2022-11-08T13:48:42.194Z,5.01
2022-11-08T13:51:37.600Z,5.03
2022-11-08T13:54:04.168Z,4.96
2022-11-08T13:56:50.948Z,4.98
2022-11-08T13:59:33.153Z,5.01
2022-11-08T14:02:38.796Z,5.07
2022-11-08T14:05:23.869Z,5.04
2022-11-08T14:08:03.558Z,4.96
2022-11-08T14:10:40.234Z,4.97
2022-11-08T14:13:36.791Z,4.93
2022-11-08T14:16:11.799Z,4.94
2022-11-08T14:18:39.152Z,4.91
2022-11-08T14:21:06.770Z,4.85
2022-11-08T14:23:40.569Z,4.83
2022-11-08T14:26:20.716Z,4.76
2022-11-08T14:28:48.679Z,4.82
2022-11-08T14:31:24.590Z,4.86
2022-11-08T14:33:51.858Z,4.82
2022-11-08T14:36:19.542Z,4.89
2022-11-08T14:38:57.527Z,4.92
2022-11-08T14:41:28.041Z,4.94
2022-11-08T14:43:56.791Z,4.94
2022-11-08T14:46:37.911Z,4.95
2022-11-08T14:49:18.190Z,4.98
2022-11-08T14:51:45.405Z,4.96
2022-11-08T14:54:23.812Z,5.00
2022-11-08T14:56:51.135Z,5.03
2022-11-08T14:59:18.004Z,5.01
2022-11-08T15:01:48.205Z,5.04
2022-11-08T15:04:23.409Z,4.98
2022-11-08T15:06:53.334Z,5.00
2022-11-08T15:09:47.972Z,5.05
2022-11-08T15:12:21.567Z,5.04
2022-11-08T15:14:59.130Z,5.15
2022-11-08T15:17:38.048Z,5.26
2022-11-08T15:20:10.664Z,5.26
2022-11-08T15:22:37.313Z,5.19
2022-11-08T15:25:31.024Z,5.15
2022-11-08T15:28:13.392Z,5.20
2022-11-08T15:30:43.779Z,5.19
2022-11-08T15:33:22.402Z,5.21
2022-11-08T15:35:50.005Z,5.25
2022-11-08T15:38:39.249Z,5.25
2022-11-08T15:41:36.036Z,5.23
2022-11-08T15:44:21.801Z,5.27
2022-11-08T15:46:49.201Z,5.30
2022-11-08T15:49:25.958Z,5.21
2022-11-08T15:51:54.943Z,5.24
2022-11-08T15:54:23.374Z,5.25
2022-11-08T15:56:52.294Z,5.30
2022-11-08T15:59:22.538Z,5.30
2022-11-08T16:01:55.977Z,5.41
2022-11-08T16:04:23.378Z,5.34
2022-11-08T16:06:52.919Z,5.32
2022-11-08T16:09:19.632Z,5.28
2022-11-08T16:11:46.903Z,5.34
2022-11-08T16:14:20.365Z,5.30
2022-11-08T16:16:47.379Z,5.38
2022-11-08T16:19:23.273Z,5.36
2022-11-08T16:21:51.083Z,5.25
2022-11-08T16:24:18.357Z,5.26
2022-11-08T16:26:46.837Z,5.25
2022-11-08T16:29:24.209Z,5.15
2022-11-08T16:31:52.242Z,5.13
2022-11-08T16:34:21.684Z,5.14
2022-11-08T16:36:49.756Z,5.12
2022-11-08T16:39:19.376Z,5.16
2022-11-08T16:41:46.051Z,5.23
2022-11-08T16:44:13.017Z,5.36
2022-11-08T16:46:40.186Z,5.48
2022-11-08T16:49:19.175Z,5.58
2022-11-08T16:51:45.891Z,5.64
2022-11-08T16:54:20.147Z,5.67
2022-11-08T16:56:46.850Z,5.69
2022-11-08T16:59:13.413Z,5.67
2022-11-08T17:01:40.244Z,5.63
2022-11-08T17:04:06.976Z,5.63
2022-11-08T17:06:33.653Z,5.67
2022-11-08T17:09:00.395Z,5.56
2022-11-08T17:11:27.114Z,5.53
2022-11-08T17:13:53.742Z,5.52
2022-11-08T17:16:20.812Z,5.47
2022-11-08T17:18:52.487Z,5.34
2022-11-08T17:24:07.802Z,5.33
2022-11-08T17:26:34.561Z,5.45
2022-11-08T17:29:01.160Z,5.31
2022-11-08T17:31:30.407Z,5.34
2022-11-08T17:33:57.052Z,5.39
2022-11-08T17:36:23.834Z,5.38
2022-11-08T17:38:50.518Z,5.37
2022-11-08T17:41:17.727Z,5.43
2022-11-08T17:43:44.591Z,5.39
2022-11-08T17:46:12.021Z,5.34
2022-11-08T17:48:39.412Z,5.33
2022-11-08T17:51:06.768Z,5.36
2022-11-08T17:53:34.682Z,5.36
2022-11-08T17:56:04.532Z,5.42
2022-11-08T17:58:31.407Z,5.35
2022-11-08T18:00:58.929Z,5.30
2022-11-08T18:03:26.993Z,5.31
2022-11-08T18:05:57.758Z,5.50
2022-11-08T18:08:27.289Z,5.43
2022-11-08T18:10:54.386Z,5.25
2022-11-08T18:13:21.662Z,5.26
2022-11-08T18:15:48.710Z,5.28
2022-11-08T18:18:16.339Z,5.25
2022-11-08T18:20:43.044Z,5.27
2022-11-08T18:23:09.754Z,5.31
2022-11-08T18:25:36.283Z,5.34
2022-11-08T18:28:02.926Z,5.43
2022-11-08T18:30:29.754Z,5.30
2022-11-08T18:32:56.617Z,5.35
2022-11-08T18:35:23.136Z,5.34
2022-11-08T18:37:49.817Z,5.32
2022-11-08T18:40:16.460Z,5.28
2022-11-08T18:42:43.036Z,5.34
2022-11-08T18:45:10.126Z,5.34
2022-11-08T18:47:36.714Z,5.34
2022-11-08T18:50:03.656Z,5.31
2022-11-08T18:52:30.450Z,5.29
2022-11-08T18:54:57.030Z,5.34
2022-11-08T18:57:23.619Z,5.24
2022-11-08T18:59:50.241Z,5.32
2022-11-08T19:02:16.866Z,5.24
2022-11-08T19:04:43.537Z,5.25
2022-11-08T19:07:10.557Z,5.23
2022-11-08T19:09:37.467Z,5.28
2022-11-08T19:12:06.086Z,5.23
2022-11-08T19:14:32.949Z,5.15
2022-11-08T19:16:59.571Z,5.19
2022-11-08T19:19:26.220Z,5.17
2022-11-08T19:21:53.280Z,5.18
2022-11-08T19:24:19.962Z,5.20
2022-11-08T19:26:46.559Z,5.15
2022-11-08T19:29:13.215Z,5.19
2022-11-08T19:31:40.451Z,5.22
2022-11-08T19:34:07.077Z,5.25
2022-11-08T19:36:33.697Z,5.18
2022-11-08T19:39:00.299Z,5.15
2022-11-08T19:41:28.612Z,5.25
2022-11-08T19:43:55.305Z,5.24
2022-11-08T19:46:24.809Z,5.18
2022-11-08T19:48:52.617Z,5.19
2022-11-08T19:51:25.124Z,5.15
2022-11-08T19:53:55.782Z,5.19
2022-11-08T19:56:32.905Z,5.17
2022-11-08T19:59:09.225Z,5.15
2022-11-08T20:01:35.859Z,5.07
2022-11-08T20:04:04.562Z,5.13
2022-11-08T20:06:32.396Z,5.12
2022-11-08T20:09:01.205Z,5.08
2022-11-08T20:11:30.271Z,5.08
2022-11-08T20:13:59.613Z,5.12
2022-11-08T20:16:28.805Z,5.27
2022-11-08T20:19:00.451Z,5.12
2022-11-08T20:21:27.458Z,5.07
2022-11-08T20:23:54.028Z,5.10
2022-11-08T20:26:24.143Z,5.04
2022-11-08T20:28:56.304Z,5.12
2022-11-08T20:31:25.328Z,5.06
2022-11-08T20:33:53.417Z,4.98
2022-11-08T20:36:22.566Z,5.04
2022-11-08T20:38:49.672Z,5.21
2022-11-08T20:41:18.147Z,5.12
2022-11-08T20:43:46.858Z,5.06
2022-11-08T20:46:18.760Z,5.09
2022-11-08T20:48:50.691Z,5.09
2022-11-08T20:51:19.634Z,5.10
2022-11-08T20:53:47.382Z,5.06
2022-11-08T20:56:17.165Z,5.09
2022-11-08T20:58:45.194Z,5.10
2022-11-08T21:01:13.979Z,5.09
2022-11-08T21:03:41.491Z,5.11
2022-11-08T21:06:10.643Z,5.17
2022-11-08T21:11:25.205Z,5.25
2022-11-08T21:13:52.244Z,5.27
2022-11-08T21:16:47.345Z,5.29
2022-11-08T21:19:06.634Z,5.36
2022-11-08T21:21:33.290Z,5.36
2022-11-08T21:24:00.141Z,5.37
2022-11-08T21:26:27.171Z,5.40
2022-11-08T21:28:54.205Z,5.35
2022-11-08T21:31:20.714Z,5.37
2022-11-08T21:33:47.733Z,5.32
2022-11-08T21:36:14.613Z,5.32
2022-11-08T21:38:41.341Z,5.28
2022-11-08T21:41:10.783Z,5.35
2022-11-08T21:43:39.472Z,5.37
2022-11-08T21:46:21.590Z,5.37
2022-11-08T21:48:54.249Z,5.35
2022-11-08T21:51:20.818Z,5.32
2022-11-08T21:53:54.859Z,5.30
2022-11-08T21:56:24.257Z,5.30
2022-11-08T21:58:51.048Z,5.32
2022-11-08T22:01:18.444Z,5.39
2022-11-08T22:03:45.984Z,5.41
2022-11-08T22:06:12.764Z,5.37
2022-11-08T22:08:39.775Z,5.40
2022-11-08T22:11:06.480Z,5.43
2022-11-08T22:13:34.182Z,5.41
2022-11-08T22:16:01.052Z,5.43
2022-11-08T22:18:43.595Z,5.41
2022-11-08T22:21:14.254Z,5.46
2022-11-08T22:23:40.787Z,5.47
2022-11-08T22:26:07.432Z,5.47
2022-11-08T22:28:34.034Z,5.52
2022-11-08T22:31:00.676Z,5.45
2022-11-08T22:33:27.271Z,5.45
2022-11-08T22:35:53.911Z,5.43
2022-11-08T22:38:20.679Z,5.48
2022-11-08T22:40:47.760Z,5.48
2022-11-08T22:43:14.479Z,5.50
2022-11-08T22:45:42.752Z,5.52
2022-11-08T22:48:09.969Z,5.50
2022-11-08T22:50:38.877Z,5.51
2022-11-08T22:53:05.715Z,5.55
2022-11-08T22:55:32.296Z,5.58
2022-11-08T22:57:59.825Z,5.62
2022-11-08T23:00:26.427Z,5.66
2022-11-08T23:02:52.976Z,5.62
2022-11-08T23:05:19.585Z,5.66
2022-11-08T23:07:46.170Z,5.58
2022-11-08T23:10:12.862Z,5.58
2022-11-08T23:12:39.530Z,5.58
2022-11-08T23:15:06.581Z,5.60
2022-11-08T23:17:33.158Z,5.59
2022-11-08T23:19:59.855Z,5.62
2022-11-08T23:22:26.372Z,5.60
2022-11-08T23:24:52.986Z,5.62
2022-11-08T23:27:20.286Z,5.66
2022-11-08T23:29:47.538Z,5.78
2022-11-08T23:32:14.163Z,5.61
2022-11-08T23:34:40.714Z,5.60
2022-11-08T23:37:07.329Z,5.58
2022-11-08T23:39:34.000Z,5.56
2022-11-08T23:42:00.610Z,5.60
2022-11-08T23:44:27.172Z,5.67
2022-11-08T23:46:58.108Z,5.69
2022-11-08T23:49:25.203Z,5.73
2022-11-08T23:51:52.048Z,5.77
2022-11-08T23:54:18.995Z,5.67
2022-11-08T23:56:45.707Z,5.65
2022-11-08T23:59:13.468Z,5.68
